createdAt,value
2022-11-05T00:01:57.706Z,73.46
2022-11-05T00:04:42.716Z,73.87
2022-11-05T00:07:37.050Z,73.86
2022-11-05T00:10:28.017Z,73.58
2022-11-05T00:13:15.965Z,73.67
2022-11-05T00:16:01.269Z,73.66
2022-11-05T00:18:27.785Z,73.35
2022-11-05T00:20:54.191Z,73.75
2022-11-05T00:23:39.649Z,73.17
2022-11-05T00:26:08.271Z,73.39
2022-11-05T00:28:35.708Z,73.88
2022-11-05T00:31:03.287Z,73.74
2022-11-05T00:33:29.790Z,73.47
2022-11-05T00:35:56.601Z,73.03
2022-11-05T00:38:23.131Z,73.35
2022-11-05T00:40:49.574Z,73.43
2022-11-05T00:43:34.939Z,72.94
2022-11-05T00:46:01.384Z,72.74
2022-11-05T00:48:46.221Z,73.22
2022-11-05T00:51:12.768Z,74.00
2022-11-05T00:53:39.269Z,73.86
2022-11-05T00:56:05.967Z,74.09
2022-11-05T00:58:32.503Z,73.77
2022-11-05T01:01:00.325Z,73.84
2022-11-05T01:03:29.387Z,73.31
2022-11-05T01:05:58.241Z,72.97
2022-11-05T01:08:27.044Z,73.08
2022-11-05T01:10:56.402Z,73.34
2022-11-05T01:13:28.361Z,73.26
2022-11-05T01:15:55.152Z,73.22
2022-11-05T01:18:23.215Z,73.74
2022-11-05T01:20:50.703Z,73.57
2022-11-05T01:23:17.687Z,73.64
2022-11-05T01:25:44.256Z,73.28
2022-11-05T01:28:10.708Z,72.95
2022-11-05T01:30:38.052Z,72.87
2022-11-05T01:33:04.501Z,72.79
2022-11-05T01:35:30.935Z,73.03
2022-11-05T01:37:57.349Z,73.23
2022-11-05T01:40:24.487Z,73.81
2022-11-05T01:42:51.268Z,73.46
2022-11-05T01:45:26.747Z,73.63
2022-11-05T01:48:15.614Z,73.57
2022-11-05T01:50:47.940Z,73.52
2022-11-05T01:53:29.500Z,73.85
2022-11-05T01:56:06.016Z,73.37
2022-11-05T01:58:39.672Z,74.86
2022-11-05T02:01:06.206Z,74.31
2022-11-05T02:03:32.758Z,75.34
2022-11-05T02:10:09.204Z,74.55
2022-11-05T02:12:39.285Z,74.54
2022-11-05T02:15:06.621Z,74.28
2022-11-05T02:17:44.749Z,73.92
2022-11-05T02:20:16.780Z,74.63
2022-11-05T02:23:20.529Z,74.52
2022-11-05T02:26:31.428Z,74.13
2022-11-05T02:29:28.292Z,74.22
2022-11-05T02:32:03.721Z,74.61
2022-11-05T02:34:42.280Z,74.50
2022-11-05T02:37:26.075Z,75.07
2022-11-05T02:40:06.568Z,75.09
2022-11-05T02:42:59.130Z,74.89
2022-11-05T02:45:43.842Z,74.38
2022-11-05T02:48:18.139Z,74.36
2022-11-05T02:51:05.537Z,73.96
2022-11-05T02:53:34.385Z,74.33
2022-11-05T02:56:09.994Z,74.20
2022-11-05T02:58:36.412Z,75.25
2022-11-05T03:01:06.790Z,74.46
2022-11-05T03:03:43.307Z,74.10
2022-11-05T03:06:43.912Z,74.18
2022-11-05T03:09:22.322Z,73.65
2022-11-05T03:12:10.339Z,73.71
2022-11-05T03:14:45.282Z,73.49
2022-11-05T03:17:31.197Z,73.61
2022-11-05T03:20:03.014Z,73.42
2022-11-05T03:22:36.858Z,73.73
2022-11-05T03:25:10.806Z,73.27
2022-11-05T03:27:40.885Z,73.21
2022-11-05T03:30:10.412Z,73.63
2022-11-05T03:32:41.996Z,73.14
2022-11-05T03:35:11.362Z,73.25
2022-11-05T03:37:41.512Z,72.72
2022-11-05T03:40:10.368Z,72.98
2022-11-05T03:42:40.904Z,72.84
2022-11-05T03:45:14.477Z,72.71
2022-11-05T03:47:45.159Z,72.39
2022-11-05T03:50:21.827Z,72.60
2022-11-05T03:52:59.744Z,72.99
2022-11-05T03:55:35.434Z,72.80
2022-11-05T03:58:04.859Z,73.16
2022-11-05T04:00:31.824Z,73.27
2022-11-05T04:02:58.325Z,73.20
2022-11-05T04:05:24.897Z,72.98
2022-11-05T04:08:14.123Z,73.13
2022-11-05T04:10:59.636Z,73.24
2022-11-05T04:13:26.808Z,73.59
2022-11-05T04:16:13.650Z,72.72
2022-11-05T04:18:40.541Z,72.73
2022-11-05T04:21:26.832Z,72.83
2022-11-05T04:24:08.208Z,73.06
2022-11-05T04:26:39.870Z,73.45
2022-11-05T04:29:24.557Z,74.08
2022-11-05T04:31:51.260Z,73.58
2022-11-05T04:34:18.894Z,73.60
2022-11-05T04:36:46.459Z,73.29
2022-11-05T04:39:12.887Z,73.44
2022-11-05T04:41:39.283Z,73.98
2022-11-05T04:44:05.868Z,73.63
2022-11-05T04:46:32.312Z,73.88
2022-11-05T04:48:58.787Z,73.95
2022-11-05T04:51:27.095Z,73.59
2022-11-05T04:53:54.034Z,73.72
2022-11-05T04:56:22.711Z,73.45
2022-11-05T04:58:49.906Z,73.50
2022-11-05T05:01:19.760Z,74.02
2022-11-05T05:03:50.922Z,74.84
2022-11-05T05:06:18.586Z,73.99
2022-11-05T05:08:47.079Z,73.75
2022-11-05T05:11:16.326Z,73.66
2022-11-05T05:13:42.799Z,73.17
2022-11-05T05:16:17.212Z,73.58
2022-11-05T05:18:46.362Z,73.61
2022-11-05T05:21:32.485Z,73.05
2022-11-05T05:23:59.036Z,73.48
2022-11-05T05:26:25.545Z,73.39
2022-11-05T05:28:53.563Z,72.81
2022-11-05T05:31:21.485Z,74.05
2022-11-05T05:33:48.424Z,73.42
2022-11-05T05:36:14.999Z,73.38
2022-11-05T05:38:41.448Z,73.69
2022-11-05T05:41:07.903Z,73.08
2022-11-05T05:43:34.471Z,73.16
2022-11-05T05:46:09.804Z,72.81
2022-11-05T05:48:36.436Z,72.89
2022-11-05T05:51:08.629Z,73.28
2022-11-05T05:53:35.719Z,73.30
2022-11-05T05:56:02.388Z,72.68
2022-11-05T05:58:33.300Z,73.09
2022-11-05T06:01:01.413Z,73.09
2022-11-05T06:03:27.849Z,72.75
2022-11-05T06:05:54.390Z,72.45
2022-11-05T06:08:20.914Z,72.37
2022-11-05T06:10:51.581Z,73.10
2022-11-05T06:13:18.220Z,72.75
2022-11-05T06:15:44.767Z,73.34
2022-11-05T06:18:11.168Z,73.36
2022-11-05T06:20:37.601Z,72.68
2022-11-05T06:23:04.069Z,72.76
2022-11-05T06:25:30.484Z,72.83
2022-11-05T06:27:56.933Z,72.80
2022-11-05T06:30:24.043Z,73.05
2022-11-05T06:32:50.487Z,73.03
2022-11-05T06:35:16.959Z,72.53
2022-11-05T06:37:43.397Z,72.50
2022-11-05T06:40:10.167Z,73.35
2022-11-05T06:42:36.628Z,72.93
2022-11-05T06:45:03.487Z,72.85
2022-11-05T06:47:29.973Z,72.30
2022-11-05T06:49:57.325Z,72.46
2022-11-05T06:52:23.776Z,72.29
2022-11-05T06:54:50.244Z,72.63
2022-11-05T06:57:16.626Z,72.27
2022-11-05T06:59:43.064Z,72.26
2022-11-05T07:02:11.752Z,73.15
2022-11-05T07:04:38.302Z,72.63
2022-11-05T07:07:04.853Z,73.34
2022-11-05T07:09:31.351Z,72.91
2022-11-05T07:11:57.766Z,72.53
2022-11-05T07:14:24.203Z,72.51
2022-11-05T07:16:50.802Z,72.88
2022-11-05T07:19:17.180Z,72.58
2022-11-05T07:21:43.621Z,72.27
2022-11-05T07:24:10.069Z,72.61
2022-11-05T07:26:36.472Z,72.40
2022-11-05T07:29:03.052Z,72.07
2022-11-05T07:31:29.595Z,72.11
2022-11-05T07:33:56.003Z,72.40
2022-11-05T07:36:22.435Z,71.74
2022-11-05T07:38:48.864Z,71.80
2022-11-05T07:41:15.316Z,72.20
2022-11-05T07:43:41.736Z,71.85
2022-11-05T07:46:13.516Z,72.14
2022-11-05T07:48:40.398Z,72.32
2022-11-05T07:51:06.897Z,71.98
2022-11-05T07:53:33.329Z,72.48
2022-11-05T07:55:59.848Z,72.55
2022-11-05T07:58:26.249Z,72.17
2022-11-05T08:00:52.803Z,72.45
2022-11-05T08:03:20.216Z,71.92
2022-11-05T08:05:47.980Z,72.03
2022-11-05T08:08:17.117Z,71.84
2022-11-05T08:10:43.839Z,71.34
2022-11-05T08:13:11.895Z,71.13
2022-11-05T08:15:39.189Z,70.89
2022-11-05T08:18:08.058Z,70.82
2022-11-05T08:20:35.147Z,70.01
2022-11-05T08:23:01.819Z,68.62
2022-11-05T08:25:28.840Z,67.92
2022-11-05T08:28:07.708Z,67.78
2022-11-05T08:30:34.952Z,68.24
2022-11-05T08:33:03.770Z,68.39
2022-11-05T08:35:30.199Z,68.49
2022-11-05T08:38:02.684Z,69.09
2022-11-05T08:40:31.467Z,68.75
2022-11-05T08:43:04.965Z,68.11
2022-11-05T08:45:32.154Z,67.53
2022-11-05T08:48:12.710Z,66.59
2022-11-05T08:50:39.563Z,66.33
2022-11-05T08:53:06.565Z,66.10
2022-11-05T08:55:33.262Z,66.28
2022-11-05T08:58:02.442Z,65.92
2022-11-05T09:00:31.050Z,64.83
2022-11-05T09:03:02.441Z,64.89
2022-11-05T09:05:30.918Z,64.10
2022-11-05T09:08:01.004Z,63.91
2022-11-05T09:10:28.471Z,63.96
2022-11-05T09:12:54.992Z,63.07
2022-11-05T09:15:23.087Z,61.50
2022-11-05T09:17:49.517Z,60.75
2022-11-05T09:20:15.974Z,59.08
2022-11-05T09:22:43.543Z,57.61
2022-11-05T09:25:10.306Z,56.03
2022-11-05T09:27:36.815Z,56.12
2022-11-05T09:30:05.303Z,54.04
2022-11-05T09:32:32.423Z,53.06
2022-11-05T09:35:01.122Z,52.58
2022-11-05T09:37:28.540Z,51.97
2022-11-05T09:39:55.718Z,51.13
2022-11-05T09:42:26.667Z,50.81
2022-11-05T09:45:02.870Z,50.39
2022-11-05T09:47:40.329Z,49.52
2022-11-05T09:50:13.422Z,50.00
2022-11-05T09:52:39.828Z,48.61
2022-11-05T09:55:17.381Z,47.00
2022-11-05T09:57:53.299Z,47.20
2022-11-05T10:00:20.091Z,47.42
2022-11-05T10:02:57.505Z,45.66
2022-11-05T10:05:25.364Z,45.96
2022-11-05T10:08:02.425Z,46.49
2022-11-05T10:10:41.562Z,44.79
2022-11-05T10:13:35.057Z,44.85
2022-11-05T10:16:08.261Z,46.34
2022-11-05T10:18:38.225Z,45.93
2022-11-05T10:21:05.432Z,46.12
2022-11-05T10:23:32.573Z,45.33
2022-11-05T10:26:03.822Z,45.44
2022-11-05T10:28:33.409Z,44.22
2022-11-05T10:31:03.685Z,45.16
2022-11-05T10:33:44.495Z,45.12
2022-11-05T10:36:24.650Z,43.81
2022-11-05T10:38:52.019Z,43.95
2022-11-05T10:41:35.778Z,44.13
2022-11-05T10:44:23.645Z,44.20
2022-11-05T10:47:02.320Z,43.76
2022-11-05T10:49:48.684Z,43.39
2022-11-05T10:52:38.035Z,42.39
2022-11-05T10:58:06.742Z,43.59
2022-11-05T11:00:33.147Z,42.88
2022-11-05T11:03:02.103Z,42.69
2022-11-05T11:05:40.730Z,42.34
2022-11-05T11:08:12.977Z,41.58
2022-11-05T11:10:49.888Z,41.87
2022-11-05T11:13:25.806Z,41.18
2022-11-05T11:15:52.984Z,41.57
2022-11-05T11:18:31.524Z,40.26
2022-11-05T11:21:23.164Z,40.22
2022-11-05T11:24:03.105Z,39.62
2022-11-05T11:26:36.784Z,40.92
2022-11-05T11:29:20.149Z,39.59
2022-11-05T11:31:46.753Z,37.36
2022-11-05T11:34:35.510Z,35.75
2022-11-05T11:37:19.043Z,35.79
2022-11-05T11:39:51.034Z,35.46
2022-11-05T11:42:23.318Z,33.28
2022-11-05T11:44:51.229Z,32.92
2022-11-05T11:47:20.848Z,33.00
2022-11-05T11:49:53.638Z,32.81
2022-11-05T11:52:32.653Z,33.01
2022-11-05T11:55:11.279Z,34.82
2022-11-05T11:57:46.644Z,34.37
2022-11-05T12:00:14.183Z,33.56
2022-11-05T12:03:00.525Z,33.51
2022-11-05T12:05:45.814Z,32.49
2022-11-05T12:08:24.300Z,31.48
2022-11-05T12:11:13.055Z,30.83
2022-11-05T12:14:00.563Z,30.52
2022-11-05T12:16:35.118Z,32.94
2022-11-05T12:19:10.684Z,33.62
2022-11-05T12:22:12.459Z,35.59
2022-11-05T12:24:52.126Z,37.16
2022-11-05T12:27:26.896Z,37.54
2022-11-05T12:29:58.601Z,38.51
2022-11-05T12:32:37.503Z,38.18
2022-11-05T12:35:44.110Z,38.13
2022-11-05T12:38:16.339Z,37.52
2022-11-05T12:41:11.704Z,34.51
2022-11-05T12:43:56.886Z,33.47
2022-11-05T12:46:34.576Z,32.05
2022-11-05T12:49:03.940Z,32.94
2022-11-05T12:51:57.223Z,34.13
2022-11-05T12:54:43.996Z,35.82
2022-11-05T12:57:13.253Z,38.57
2022-11-05T12:59:46.723Z,39.36
2022-11-05T13:02:45.119Z,41.36
2022-11-05T13:05:33.111Z,42.62
2022-11-05T13:08:11.768Z,44.42
2022-11-05T13:11:12.776Z,45.11
2022-11-05T13:14:08.112Z,45.30
2022-11-05T13:16:40.709Z,45.80
2022-11-05T13:19:21.241Z,46.49
2022-11-05T13:21:54.647Z,46.40
2022-11-05T13:24:25.409Z,46.60
2022-11-05T13:27:16.525Z,46.12
2022-11-05T13:29:51.383Z,46.84
2022-11-05T13:32:38.595Z,46.17
2022-11-05T13:35:14.099Z,46.90
2022-11-05T13:38:03.267Z,46.87
2022-11-05T13:40:51.411Z,47.19
2022-11-05T13:43:39.405Z,47.13
2022-11-05T13:46:23.985Z,48.02
2022-11-05T13:49:06.241Z,47.65
2022-11-05T13:51:48.774Z,47.35
2022-11-05T13:54:42.868Z,47.89
2022-11-05T13:57:16.903Z,48.46
2022-11-05T14:00:01.497Z,48.03
2022-11-05T14:02:51.298Z,48.02
2022-11-05T14:05:39.986Z,48.54
2022-11-05T14:08:16.396Z,49.75
2022-11-05T14:10:56.293Z,49.42
2022-11-05T14:13:31.675Z,49.63
2022-11-05T14:16:22.593Z,49.83
2022-11-05T14:18:52.100Z,49.55
2022-11-05T14:21:27.875Z,49.76
2022-11-05T14:23:59.588Z,50.04
2022-11-05T14:26:34.885Z,49.55
2022-11-05T14:29:03.979Z,50.28
2022-11-05T14:31:54.429Z,50.41
2022-11-05T14:34:40.387Z,50.69
2022-11-05T14:37:09.725Z,50.96
2022-11-05T14:39:36.719Z,50.63
2022-11-05T14:42:19.368Z,50.08
2022-11-05T14:45:23.658Z,50.26
2022-11-05T14:47:55.274Z,50.28
2022-11-05T14:50:27.411Z,50.67
2022-11-05T14:52:57.504Z,50.65
2022-11-05T14:55:31.315Z,50.81
2022-11-05T14:57:57.681Z,51.42
2022-11-05T15:00:40.413Z,51.47
2022-11-05T15:03:33.647Z,51.13
2022-11-05T15:06:23.374Z,52.14
2022-11-05T15:08:49.717Z,51.62
2022-11-05T15:11:21.420Z,51.95
2022-11-05T15:13:57.887Z,52.00
2022-11-05T15:16:41.946Z,52.00
2022-11-05T15:19:23.052Z,52.22
2022-11-05T15:21:49.628Z,52.30
2022-11-05T15:24:19.147Z,52.75
2022-11-05T15:27:00.457Z,52.79
2022-11-05T15:29:30.343Z,53.23
2022-11-05T15:31:56.925Z,53.11
2022-11-05T15:34:28.904Z,53.32
2022-11-05T15:36:56.664Z,53.42
2022-11-05T15:39:40.417Z,53.55
2022-11-05T15:42:24.657Z,53.89
2022-11-05T15:44:56.437Z,53.89
2022-11-05T15:47:31.184Z,54.80
2022-11-05T15:50:01.231Z,54.47
2022-11-05T15:52:42.318Z,55.03
2022-11-05T15:55:14.821Z,54.80
2022-11-05T15:57:50.259Z,55.00
2022-11-05T16:00:26.195Z,55.05
2022-11-05T16:03:15.382Z,54.97
2022-11-05T16:05:46.432Z,55.59
2022-11-05T16:08:22.377Z,55.86
2022-11-05T16:10:52.215Z,55.62
2022-11-05T16:13:34.777Z,55.69
2022-11-05T16:16:07.095Z,55.59
2022-11-05T16:18:38.570Z,55.71
2022-11-05T16:21:12.183Z,56.14
2022-11-05T16:23:55.425Z,56.34
2022-11-05T16:27:01.068Z,56.92
2022-11-05T16:29:24.008Z,56.62
2022-11-05T16:31:52.480Z,56.35
2022-11-05T16:34:37.779Z,56.04
2022-11-05T16:37:06.739Z,56.72
2022-11-05T16:39:33.282Z,57.44
2022-11-05T16:41:59.828Z,57.49
2022-11-05T16:44:26.328Z,57.25
2022-11-05T16:46:52.774Z,57.72
2022-11-05T16:49:19.195Z,57.59
2022-11-05T16:51:45.604Z,57.88
2022-11-05T16:54:12.038Z,57.96
2022-11-05T16:56:39.920Z,57.66
2022-11-05T16:59:09.372Z,57.78
2022-11-05T17:01:39.294Z,57.66
2022-11-05T17:04:05.932Z,58.47
2022-11-05T17:06:32.338Z,57.82
2022-11-05T17:08:58.777Z,57.36
2022-11-05T17:11:25.283Z,58.04
2022-11-05T17:13:51.715Z,57.95
2022-11-05T17:16:18.176Z,58.37
2022-11-05T17:18:44.919Z,59.00
2022-11-05T17:21:12.595Z,58.91
2022-11-05T17:23:39.051Z,59.24
2022-11-05T17:26:09.289Z,58.50
2022-11-05T17:28:36.231Z,58.40
2022-11-05T17:31:04.978Z,57.76
2022-11-05T17:33:31.977Z,58.42
2022-11-05T17:35:58.676Z,58.10
2022-11-05T17:38:26.221Z,57.93
2022-11-05T17:40:53.042Z,58.11
2022-11-05T17:43:20.397Z,58.67
2022-11-05T17:45:55.818Z,58.63
2022-11-05T17:48:24.004Z,58.63
2022-11-05T17:50:51.014Z,58.99
2022-11-05T17:53:18.997Z,59.60
2022-11-05T17:55:46.892Z,58.83
2022-11-05T17:58:13.549Z,59.54
2022-11-05T18:00:41.609Z,59.55
2022-11-05T18:03:09.660Z,59.71
2022-11-05T18:05:36.362Z,59.93
2022-11-05T18:08:02.961Z,59.94
2022-11-05T18:10:29.461Z,60.08
2022-11-05T18:12:56.251Z,60.65
2022-11-05T18:15:22.865Z,60.75
2022-11-05T18:17:49.307Z,61.02
2022-11-05T18:20:19.122Z,60.09
2022-11-05T18:22:48.423Z,60.39
2022-11-05T18:25:14.918Z,60.19
2022-11-05T18:27:41.819Z,60.76
2022-11-05T18:30:09.612Z,60.11
2022-11-05T18:32:36.534Z,60.91
2022-11-05T18:35:03.165Z,61.08
2022-11-05T18:37:29.596Z,61.29
2022-11-05T18:39:55.992Z,61.63
2022-11-05T18:42:22.461Z,61.53
2022-11-05T18:44:48.935Z,61.77
2022-11-05T18:47:15.657Z,61.73
2022-11-05T18:49:42.066Z,61.12
2022-11-05T18:52:08.822Z,61.13
2022-11-05T18:54:35.262Z,61.53
2022-11-05T18:57:02.224Z,61.66
2022-11-05T18:59:38.717Z,62.49
2022-11-05T19:02:06.629Z,62.39
2022-11-05T19:04:35.919Z,62.95
2022-11-05T19:07:05.181Z,62.95
2022-11-05T19:09:35.899Z,63.40
2022-11-05T19:12:02.838Z,63.18
2022-11-05T19:14:30.140Z,63.14
2022-11-05T19:16:57.499Z,63.02
2022-11-05T19:19:24.000Z,63.26
2022-11-05T19:21:51.031Z,63.23
2022-11-05T19:24:17.592Z,62.75
2022-11-05T19:26:44.501Z,62.76
2022-11-05T19:29:10.971Z,63.17
2022-11-05T19:31:37.440Z,62.92
2022-11-05T19:34:05.422Z,62.77
2022-11-05T19:36:33.280Z,63.23
2022-11-05T19:39:06.362Z,63.64
2022-11-05T19:41:33.006Z,64.12
2022-11-05T19:44:01.482Z,63.89
2022-11-05T19:46:29.659Z,64.26
2022-11-05T19:48:56.997Z,64.97
2022-11-05T19:51:26.152Z,64.76
2022-11-05T19:53:53.576Z,64.56
2022-11-05T19:56:22.710Z,64.08
2022-11-05T19:58:49.555Z,64.68
2022-11-05T20:01:17.786Z,64.76
2022-11-05T20:03:44.540Z,64.44
2022-11-05T20:06:13.712Z,64.72
2022-11-05T20:08:59.687Z,65.74
2022-11-05T20:11:27.479Z,65.41
2022-11-05T20:13:53.867Z,65.30
2022-11-05T20:16:26.561Z,65.61
2022-11-05T20:18:53.278Z,65.41
2022-11-05T20:21:20.157Z,65.28
2022-11-05T20:23:46.985Z,64.61
2022-11-05T20:26:14.237Z,64.41
2022-11-05T20:28:42.852Z,64.29
2022-11-05T20:31:14.030Z,64.49
2022-11-05T20:33:41.423Z,65.28
2022-11-05T20:36:12.173Z,65.30
2022-11-05T20:38:38.667Z,65.07
2022-11-05T20:41:12.651Z,64.88
2022-11-05T20:43:43.033Z,65.20
2022-11-05T20:46:13.309Z,65.10
2022-11-05T20:48:40.418Z,65.06
2022-11-05T20:51:10.015Z,65.67
2022-11-05T20:53:37.235Z,65.18
2022-11-05T20:56:07.774Z,65.67
2022-11-05T20:58:35.753Z,66.04
2022-11-05T21:01:03.057Z,66.89
2022-11-05T21:03:29.950Z,67.72
2022-11-05T21:05:59.932Z,67.23
2022-11-05T21:08:27.629Z,67.39
2022-11-05T21:10:54.963Z,67.81
2022-11-05T21:13:21.763Z,67.77
2022-11-05T21:15:57.191Z,67.43
2022-11-05T21:18:26.361Z,67.40
2022-11-05T21:20:52.971Z,67.47
2022-11-05T21:23:20.018Z,66.97
2022-11-05T21:25:46.574Z,66.76
2022-11-05T21:28:14.489Z,66.94
2022-11-05T21:30:44.936Z,67.44
2022-11-05T21:33:12.362Z,67.65
2022-11-05T21:35:41.055Z,67.25
2022-11-05T21:38:07.692Z,67.24
2022-11-05T21:40:34.181Z,68.46
2022-11-05T21:43:00.683Z,67.75
2022-11-05T21:45:27.206Z,67.52
2022-11-05T21:47:53.773Z,67.48
2022-11-05T21:50:40.183Z,67.69
2022-11-05T21:53:26.988Z,67.98
2022-11-05T21:56:11.907Z,68.06
2022-11-05T21:58:57.082Z,68.16
2022-11-05T22:01:23.796Z,68.02
2022-11-05T22:03:50.292Z,68.08
2022-11-05T22:06:16.714Z,68.27
2022-11-05T22:08:43.137Z,68.10
2022-11-05T22:11:09.557Z,68.24
2022-11-05T22:13:35.989Z,68.29
2022-11-05T22:16:02.404Z,67.38
2022-11-05T22:18:28.890Z,67.33
2022-11-05T22:20:55.452Z,67.02
2022-11-05T22:23:21.911Z,67.78
2022-11-05T22:25:48.515Z,68.00
2022-11-05T22:28:15.102Z,67.25
2022-11-05T22:30:41.740Z,67.37
2022-11-05T22:33:08.155Z,67.50
2022-11-05T22:35:34.581Z,68.31
2022-11-05T22:38:01.097Z,67.84
2022-11-05T22:40:27.467Z,68.37
2022-11-05T22:42:54.050Z,68.09
2022-11-05T22:45:20.458Z,69.22
2022-11-05T22:47:46.857Z,69.08
2022-11-05T22:50:13.644Z,69.47
2022-11-05T22:52:40.202Z,69.21
2022-11-05T22:55:07.076Z,68.79
2022-11-05T22:57:33.555Z,69.03
2022-11-05T22:59:59.956Z,69.82
2022-11-05T23:02:26.435Z,69.00
2022-11-05T23:04:52.990Z,69.51
2022-11-05T23:07:38.065Z,68.90
2022-11-05T23:10:23.008Z,69.03
2022-11-05T23:12:49.418Z,69.29
2022-11-05T23:15:34.277Z,69.69
2022-11-05T23:18:19.466Z,70.07
2022-11-05T23:21:04.623Z,69.42
2022-11-05T23:23:49.831Z,69.67
2022-11-05T23:26:34.698Z,69.26
2022-11-05T23:29:01.105Z,69.69
2022-11-05T23:32:02.940Z,68.92
2022-11-05T23:34:30.353Z,69.16
2022-11-05T23:37:15.167Z,69.21
2022-11-05T23:39:42.992Z,69.35
2022-11-05T23:42:28.403Z,69.16
2022-11-05T23:45:14.859Z,68.72
2022-11-05T23:48:00.445Z,69.10
2022-11-05T23:50:27.060Z,68.66
2022-11-05T23:52:54.062Z,68.88
2022-11-05T23:55:21.512Z,69.83
2022-11-05T23:57:48.176Z,69.26
